Time;durP1;ratioP1;P1;durP2;ratioP2;P2;SDS_P1;SDS_P2;PMS_P1;PMS_P2;Temp;Humidity;BMP_temperature;BMP_pressure;BME280_temperature;BME280_humidity;BME280_pressure;Samples;Min_cycle;Max_cycle;Signal;HPM_P1;HPM_P2
2021/09/09 04:57:16;;;;;;;0.30;0.30;;;19.90;99.90;;;;;;4886958;26;20233;-69
2021/09/09 04:59:44;;;;;;;1.38;1.27;;;20.00;99.90;;;;;;5005825;28;20211;-68
2021/09/09 05:02:11;;;;;;;0.20;0.20;;;20.00;99.90;;;;;;5002966;28;20204;-68
2021/09/09 05:04:39;;;;;;;0.20;0.20;;;19.90;99.90;;;;;;5011046;28;20270;-68
2021/09/09 05:07:06;;;;;;;0.45;0.45;;;19.80;99.90;;;;;;5011515;28;20204;-68
2021/09/09 05:09:34;;;;;;;1.23;1.20;;;19.80;99.90;;;;;;5011943;28;20622;-69
2021/09/09 05:12:01;;;;;;;0.17;0.17;;;19.80;99.90;;;;;;5010458;28;20247;-68
2021/09/09 05:14:29;;;;;;;6.18;3.80;;;19.80;99.90;;;;;;5009202;28;20248;-68
2021/09/09 05:16:56;;;;;;;6.55;3.67;;;19.80;99.90;;;;;;5017445;28;20667;-68
2021/09/09 05:19:23;;;;;;;5.25;4.03;;;19.80;99.90;;;;;;5010918;28;20208;-68
2021/09/09 05:21:50;;;;;;;6.15;4.32;;;19.80;99.90;;;;;;5010917;28;20214;-68
2021/09/09 05:24:17;;;;;;;6.03;3.67;;;19.70;99.90;;;;;;5011098;28;20208;-69
2021/09/09 05:26:44;;;;;;;4.70;4.00;;;19.50;99.90;;;;;;5010474;28;20212;-69
2021/09/09 05:29:11;;;;;;;5.00;3.88;;;19.40;99.90;;;;;;5010649;28;20209;-69
2021/09/09 05:31:39;;;;;;;5.22;4.72;;;19.50;99.90;;;;;;5010757;28;20212;-69
2021/09/09 05:34:06;;;;;;;4.57;4.07;;;19.40;99.90;;;;;;5011314;28;20231;-69
2021/09/09 05:36:33;;;;;;;3.88;3.50;;;19.40;99.90;;;;;;5011399;28;20270;-69
2021/09/09 05:39:00;;;;;;;5.22;4.43;;;19.50;99.90;;;;;;5010943;28;20208;-69
2021/09/09 05:41:27;;;;;;;4.38;3.95;;;19.40;99.90;;;;;;5008997;28;20216;-69
2021/09/09 05:43:54;;;;;;;6.13;4.47;;;19.50;99.90;;;;;;5010523;28;20595;-68
2021/09/09 05:46:21;;;;;;;5.88;4.75;;;19.50;99.90;;;;;;5010777;28;20274;-68
2021/09/09 05:48:49;;;;;;;4.50;4.10;;;19.50;99.90;;;;;;5010738;28;20258;-69
2021/09/09 05:51:16;;;;;;;4.05;3.65;;;19.30;99.90;;;;;;5010165;28;20250;-69
2021/09/09 05:53:43;;;;;;;3.95;3.53;;;19.50;99.90;;;;;;5010073;28;20286;-69
2021/09/09 05:56:12;;;;;;;5.03;4.28;;;19.50;99.90;;;;;;5010453;28;20687;-69
2021/09/09 05:58:39;;;;;;;5.97;5.07;;;19.40;99.90;;;;;;5010075;28;20212;-67
2021/09/09 06:01:06;;;;;;;6.20;4.05;;;19.30;99.90;;;;;;4999535;28;20204;-68
2021/09/09 06:03:34;;;;;;;5.10;4.07;;;19.50;99.90;;;;;;5002761;28;20204;-69
2021/09/09 06:08:37;;;;;;;5.38;3.90;;;19.30;99.90;;;;;;5140518;22;20244;-72
2021/09/09 06:11:04;;;;;;;3.53;3.22;;;19.20;99.90;;;;;;4990258;28;20201;-72
2021/09/09 06:13:32;;;;;;;4.30;3.90;;;19.20;99.90;;;;;;4990880;28;20260;-70
2021/09/09 06:15:58;;;;;;;6.65;4.45;;;19.20;99.90;;;;;;4990770;28;20300;-70
2021/09/09 06:18:24;;;;;;;5.47;4.20;;;19.30;99.90;;;;;;4990852;28;20211;-72
2021/09/09 06:20:50;;;;;;;5.03;4.47;;;19.20;99.90;;;;;;4990953;28;20208;-71
2021/09/09 06:23:17;;;;;;;4.80;4.30;;;19.30;99.90;;;;;;4991201;28;20691;-70
2021/09/09 06:25:44;;;;;;;4.93;4.13;;;19.40;99.90;;;;;;4988397;28;20212;-71
2021/09/09 06:28:10;;;;;;;4.97;4.47;;;19.40;99.90;;;;;;4990468;28;20213;-71
2021/09/09 06:30:37;;;;;;;4.57;4.15;;;19.30;99.90;;;;;;4989856;28;20623;-70
2021/09/09 06:33:03;;;;;;;4.38;3.97;;;19.60;99.90;;;;;;4990625;28;20205;-69
2021/09/09 06:35:29;;;;;;;6.18;4.10;;;19.50;99.90;;;;;;4990358;28;20213;-72
2021/09/09 06:37:56;;;;;;;4.90;4.50;;;19.50;99.90;;;;;;4990521;28;20676;-73
2021/09/09 06:40:22;;;;;;;4.53;4.13;;;19.70;99.90;;;;;;4990511;28;20342;-71
2021/09/09 06:42:49;;;;;;;5.80;4.45;;;19.90;99.90;;;;;;4990717;28;20212;-72
2021/09/09 06:45:16;;;;;;;5.10;4.70;;;19.90;99.90;;;;;;4990839;28;20615;-70
2021/09/09 06:47:42;;;;;;;7.80;7.10;;;19.90;99.90;;;;;;4990045;28;20216;-73
2021/09/09 06:50:09;;;;;;;8.70;6.53;;;19.90;99.90;;;;;;4989514;28;20209;-72
2021/09/09 06:52:35;;;;;;;5.43;4.72;;;19.70;99.90;;;;;;4989167;28;20260;-72
2021/09/09 06:55:01;;;;;;;7.30;5.68;;;19.90;99.90;;;;;;4990312;28;20233;-71
2021/09/09 06:57:28;;;;;;;5.07;4.57;;;20.00;99.90;;;;;;4990242;28;20209;-73
2021/09/09 06:59:54;;;;;;;7.20;4.38;;;20.10;99.90;;;;;;4990300;28;20205;-71
2021/09/09 07:02:21;;;;;;;5.57;5.07;;;20.20;99.90;;;;;;4989170;28;20208;-72
2021/09/09 07:04:47;;;;;;;5.05;4.43;;;20.30;99.90;;;;;;4994411;28;20212;-71
2021/09/09 07:07:15;;;;;;;5.35;4.47;;;20.30;99.90;;;;;;4993651;28;20267;-70
2021/09/09 07:09:42;;;;;;;4.55;4.15;;;20.40;99.90;;;;;;4993462;28;20718;-69
2021/09/09 07:12:09;;;;;;;4.72;3.30;;;20.60;99.90;;;;;;4988761;28;20267;-70
2021/09/09 07:14:36;;;;;;;4.70;4.20;;;20.50;99.90;;;;;;4993188;28;20232;-70
2021/09/09 07:17:05;;;;;;;4.90;4.22;;;20.50;99.90;;;;;;4991330;28;20217;-70
2021/09/09 07:19:31;;;;;;;5.50;4.38;;;20.80;99.90;;;;;;4991884;28;20248;-70
2021/09/09 07:21:58;;;;;;;4.07;3.72;;;20.90;99.90;;;;;;4993164;28;20216;-70
2021/09/09 07:24:25;;;;;;;5.03;4.15;;;20.80;99.90;;;;;;4992015;28;20201;-70
2021/09/09 07:26:52;;;;;;;5.47;3.72;;;20.90;1.00;;;;;;4992530;28;20264;-68
2021/09/09 07:29:19;;;;;;;3.28;2.85;;;20.60;1.00;;;;;;4993972;28;20209;-68
2021/09/09 07:31:46;;;;;;;3.58;3.25;;;20.40;1.00;;;;;;4994170;28;20209;-68
2021/09/09 07:34:15;;;;;;;4.25;3.65;;;20.30;1.00;;;;;;4993480;28;20241;-68
2021/09/09 07:36:42;;;;;;;5.80;3.90;;;20.50;1.00;;;;;;4989557;28;20243;-68
2021/09/09 07:39:09;;;;;;;3.92;3.60;;;20.70;1.00;;;;;;4990472;28;20283;-68
2021/09/09 07:41:36;;;;;;;4.20;3.63;;;20.80;1.00;;;;;;4992784;28;20641;-67
2021/09/09 07:44:03;;;;;;;5.07;4.30;;;20.80;1.00;;;;;;4993241;28;20738;-68
2021/09/09 07:46:31;;;;;;;5.03;3.88;;;20.90;1.00;;;;;;4993391;28;20201;-68
2021/09/09 07:48:58;;;;;;;3.60;3.30;;;20.80;1.00;;;;;;4993000;28;20256;-68
2021/09/09 07:51:26;;;;;;;4.40;3.30;;;20.70;1.00;;;;;;4993135;28;20209;-69
2021/09/09 07:53:55;;;;;;;5.50;3.35;;;20.80;1.00;;;;;;4992579;28;20287;-69
2021/09/09 07:56:22;;;;;;;5.45;4.20;;;20.70;1.00;;;;;;4992748;28;20205;-68
2021/09/09 07:58:49;;;;;;;5.30;3.58;;;20.80;1.00;;;;;;4993575;28;20247;-70
2021/09/09 08:01:17;;;;;;;6.15;3.80;;;20.80;1.00;;;;;;4993623;28;20211;-70
2021/09/09 08:03:45;;;;;;;6.53;3.67;;;20.80;1.00;;;;;;4992683;28;20217;-69
2021/09/09 08:06:12;;;;;;;7.85;4.18;;;21.10;1.00;;;;;;4992935;28;20275;-68
2021/09/09 08:08:41;;;;;;;4.72;4.32;;;21.40;1.00;;;;;;4992426;28;20225;-68
2021/09/09 08:11:08;;;;;;;4.38;3.97;;;21.60;1.00;;;;;;4993039;28;20208;-68
2021/09/09 08:13:35;;;;;;;3.65;3.25;;;22.00;1.00;;;;;;4992275;28;20726;-70
2021/09/09 08:16:02;;;;;;;3.90;3.53;;;22.00;1.00;;;;;;4992418;28;20263;-70
2021/09/09 08:18:29;;;;;;;4.38;3.97;;;21.80;1.00;;;;;;4992280;28;20279;-70
2021/09/09 08:20:56;;;;;;;3.13;2.83;;;21.80;1.00;;;;;;4992962;28;20213;-69
2021/09/09 08:23:24;;;;;;;4.65;3.63;;;21.80;1.00;;;;;;4992326;28;20205;-69
2021/09/09 08:25:53;;;;;;;3.08;2.88;;;22.00;1.00;;;;;;4992738;28;20212;-69
2021/09/09 08:28:20;;;;;;;3.30;3.00;;;22.30;1.00;;;;;;4992993;28;20268;-69
2021/09/09 08:30:48;;;;;;;4.20;2.53;;;22.40;1.00;;;;;;4992084;28;20217;-69
2021/09/09 08:33:14;;;;;;;4.03;3.13;;;22.50;1.00;;;;;;4992621;28;20255;-68
2021/09/09 08:35:42;;;;;;;3.25;2.80;;;22.60;1.00;;;;;;4991850;28;20236;-69
2021/09/09 08:38:09;;;;;;;7.00;3.72;;;22.80;1.00;;;;;;4991820;28;20259;-68
2021/09/09 08:40:41;;;;;;;3.83;3.47;;;23.20;1.00;;;;;;4987914;28;20251;-68
2021/09/09 08:43:10;;;;;;;3.53;3.22;;;23.40;1.00;;;;;;4992550;28;20205;-69
2021/09/09 08:45:37;;;;;;;8.57;5.28;;;23.40;1.00;;;;;;4991643;28;20221;-69
2021/09/09 08:48:07;;;;;;;6.22;4.43;;;23.30;1.00;;;;;;4992066;28;20209;-69
2021/09/09 08:50:34;;;;;;;5.93;4.85;;;22.90;1.00;;;;;;4991675;28;20295;-70
2021/09/09 08:53:03;;;;;;;5.93;4.40;;;22.90;1.00;;;;;;4991660;28;20212;-68
2021/09/09 08:55:30;;;;;;;5.30;4.80;;;22.80;1.00;;;;;;4991453;28;20647;-68
2021/09/09 08:57:59;;;;;;;8.98;5.10;;;22.80;1.00;;;;;;4991453;28;20204;-69
2021/09/09 09:00:29;;;;;;;5.30;4.70;;;22.60;1.00;;;;;;4991318;28;20205;-69
2021/09/09 09:02:57;;;;;;;8.10;5.25;;;22.60;1.00;;;;;;4989719;28;20279;-70
2021/09/09 09:05:26;;;;;;;5.95;5.35;;;22.60;1.00;;;;;;4990507;28;20205;-69
2021/09/09 09:08:00;;;;;;;11.07;6.25;;;22.60;1.00;;;;;;4990983;28;20225;-67
2021/09/09 09:10:28;;;;;;;6.80;6.03;;;22.70;1.00;;;;;;4991490;28;20263;-68
2021/09/09 09:12:55;;;;;;;5.38;4.97;;;22.70;1.00;;;;;;4990598;28;20686;-67
2021/09/09 09:15:25;;;;;;;7.45;5.10;;;22.90;1.00;;;;;;4991268;28;20287;-70
2021/09/09 09:17:58;;;;;;;6.30;5.70;;;23.10;1.00;;;;;;4991485;28;20224;-67
2021/09/09 09:20:36;;;;;;;6.45;5.85;;;22.90;1.00;;;;;;4990537;28;20197;-67
2021/09/09 09:23:14;;;;;;;6.68;6.07;;;23.10;1.00;;;;;;4991546;28;20292;-68
2021/09/09 09:25:46;;;;;;;7.28;5.75;;;23.20;1.00;;;;;;4989383;28;20212;-68
2021/09/09 09:28:13;;;;;;;6.07;5.65;;;23.30;1.00;;;;;;4991018;28;20271;-68
2021/09/09 09:30:41;;;;;;;7.65;6.65;;;23.50;1.00;;;;;;4989871;28;20208;-68
2021/09/09 09:33:09;;;;;;;6.75;6.10;;;23.40;1.00;;;;;;4991453;28;20209;-68
2021/09/09 09:35:36;;;;;;;6.22;5.60;;;23.60;1.00;;;;;;4987679;28;20667;-67
2021/09/09 09:38:06;;;;;;;5.72;5.22;;;23.90;1.00;;;;;;4991333;28;20212;-68
2021/09/09 09:40:36;;;;;;;9.45;7.40;;;23.90;1.00;;;;;;4990522;28;20205;-70
2021/09/09 09:43:08;;;;;;;7.22;5.97;;;23.50;1.00;;;;;;4991205;28;20215;-72
2021/09/09 09:45:35;;;;;;;7.00;6.32;;;23.20;1.00;;;;;;4985220;28;20205;-71
2021/09/09 09:48:02;;;;;;;9.43;6.25;;;23.00;1.00;;;;;;4991169;28;20209;-71
2021/09/09 09:50:40;;;;;;;7.18;6.55;;;23.00;1.00;;;;;;4990734;28;20209;-70
2021/09/09 09:53:17;;;;;;;6.40;5.88;;;22.80;1.00;;;;;;4991260;28;20287;-73
2021/09/09 09:55:45;;;;;;;7.10;6.32;;;22.80;1.00;;;;;;4984844;28;20232;-72
2021/09/09 09:58:12;;;;;;;7.90;7.15;;;23.00;1.00;;;;;;4991033;28;20251;-68
2021/09/09 10:00:40;;;;;;;6.97;6.05;;;23.10;1.00;;;;;;4990467;28;20743;-71
2021/09/09 10:03:07;;;;;;;8.02;6.65;;;23.10;1.00;;;;;;4991060;28;20356;-71
2021/09/09 10:05:38;;;;;;;7.32;6.72;;;23.10;1.00;;;;;;4981471;28;20336;-70
2021/09/09 10:08:06;;;;;;;8.25;7.25;;;23.00;1.00;;;;;;4988861;28;20220;-72
2021/09/09 10:10:33;;;;;;;7.72;7.03;;;23.10;1.00;;;;;;4990521;28;20205;-71
2021/09/09 10:13:00;;;;;;;7.93;7.05;;;23.00;1.00;;;;;;4987519;28;20205;-71
2021/09/09 10:15:29;;;;;;;8.00;7.20;;;23.00;1.00;;;;;;4990302;28;20232;-71
2021/09/09 10:17:57;;;;;;;8.40;7.60;;;23.00;99.90;;;;;;4990704;28;20707;-72
2021/09/09 10:20:32;;;;;;;8.73;7.93;;;22.90;1.00;;;;;;4990519;28;20252;-72
2021/09/09 10:23:06;;;;;;;8.52;7.78;;;22.90;1.00;;;;;;4990151;28;20209;-72
2021/09/09 10:25:47;;;;;;;8.43;7.65;;;23.00;1.00;;;;;;4989311;28;20240;-73
2021/09/09 10:28:40;;;;;;;8.75;7.95;;;23.20;1.00;;;;;;4990760;28;20240;-73
2021/09/09 10:31:09;;;;;;;11.40;8.90;;;23.30;1.00;;;;;;4986215;28;20259;-72
2021/09/09 10:33:38;;;;;;;8.55;7.82;;;23.40;99.90;;;;;;4986792;28;20272;-71
2021/09/09 10:36:25;;;;;;;7.82;7.13;;;23.60;99.90;;;;;;4981842;28;20232;-70
2021/09/09 10:38:53;;;;;;;8.70;8.00;;;23.70;99.90;;;;;;4988283;28;20691;-72
2021/09/09 10:41:28;;;;;;;7.88;7.28;;;23.60;99.90;;;;;;4993794;28;20209;-69
2021/09/09 10:43:58;;;;;;;7.93;7.28;;;23.70;99.90;;;;;;4993529;28;20291;-68
2021/09/09 10:46:31;;;;;;;7.95;7.25;;;23.90;99.90;;;;;;4989725;28;20267;-68
2021/09/09 10:49:06;;;;;;;8.20;7.50;;;24.30;99.90;;;;;;4994038;28;20295;-68
2021/09/09 10:51:33;;;;;;;9.82;8.85;;;24.50;99.90;;;;;;4986966;28;20212;-68
2021/09/09 10:54:02;;;;;;;9.00;8.10;;;24.70;99.90;;;;;;4994102;28;20212;-68
2021/09/09 10:56:35;;;;;;;8.80;8.00;;;24.80;99.90;;;;;;4992849;28;20719;-68
2021/09/09 10:59:18;;;;;;;8.85;8.05;;;24.70;99.90;;;;;;4993088;28;20205;-68
2021/09/09 11:01:46;;;;;;;8.00;7.30;;;24.90;99.90;;;;;;4992464;28;20205;-68
2021/09/09 11:04:32;;;;;;;9.48;8.30;;;24.70;99.90;;;;;;4994439;28;20209;-68
2021/09/09 11:07:00;;;;;;;9.63;7.80;;;24.60;99.90;;;;;;4993197;28;20205;-67
2021/09/09 11:09:29;;;;;;;9.35;8.65;;;24.10;99.90;;;;;;4993680;28;20209;-68
2021/09/09 11:11:58;;;;;;;9.05;8.15;;;23.80;99.90;;;;;;4992786;28;20209;-69
2021/09/09 11:14:26;;;;;;;128.50;72.82;;;23.50;99.90;;;;;;4992406;28;20259;-68
2021/09/09 11:16:53;;;;;;;9.20;8.30;;;23.50;99.90;;;;;;4990721;28;20296;-68
2021/09/09 11:19:22;;;;;;;8.80;8.10;;;23.40;99.90;;;;;;4994093;28;20634;-68
2021/09/09 11:21:50;;;;;;;8.38;7.57;;;23.40;99.90;;;;;;4994070;28;20655;-68
2021/09/09 11:24:18;;;;;;;9.38;8.27;;;23.50;99.90;;;;;;4993887;28;20201;-68
2021/09/09 11:26:49;;;;;;;24.73;16.30;;;23.50;99.90;;;;;;4993693;28;20209;-68
2021/09/09 11:29:20;;;;;;;9.52;8.73;;;23.80;99.90;;;;;;4989088;28;20217;-68
2021/09/09 11:31:49;;;;;;;10.90;9.75;;;24.00;99.90;;;;;;4993993;28;20637;-68
2021/09/09 11:34:22;;;;;;;12.60;9.50;;;24.40;99.90;;;;;;4992949;28;20672;-68
2021/09/09 11:36:49;;;;;;;21.58;12.63;;;24.60;99.90;;;;;;4993746;28;20231;-68
2021/09/09 11:39:19;;;;;;;8.75;8.05;;;25.00;99.90;;;;;;4992966;28;20200;-68
2021/09/09 11:41:51;;;;;;;8.35;7.55;;;25.20;99.90;;;;;;4992395;28;20219;-68
2021/09/09 11:44:27;;;;;;;10.27;8.63;;;25.20;99.90;;;;;;4990473;28;20648;-69
2021/09/09 11:46:55;;;;;;;10.95;8.60;;;24.90;99.90;;;;;;4987833;28;20259;-69
2021/09/09 11:49:24;;;;;;;8.80;7.40;;;25.10;99.90;;;;;;4990279;28;20912;-69
2021/09/09 11:51:53;;;;;;;9.40;8.57;;;25.10;99.90;;;;;;4991080;28;20209;-70
2021/09/09 11:54:21;;;;;;;10.82;8.40;;;25.20;99.90;;;;;;4989226;28;20299;-69
2021/09/09 11:56:51;;;;;;;9.32;7.50;;;25.30;99.90;;;;;;4991308;28;20236;-69
2021/09/09 11:59:20;;;;;;;8.10;7.30;;;25.10;99.90;;;;;;4991828;28;20290;-70
2021/09/09 12:01:49;;;;;;;7.55;6.57;;;24.60;99.90;;;;;;4988339;28;20205;-70
2021/09/09 12:04:17;;;;;;;7.90;7.30;;;25.30;99.90;;;;;;4991182;28;20259;-69
2021/09/09 12:06:44;;;;;;;7.47;6.78;;;25.80;99.90;;;;;;4991366;28;20299;-70
2021/09/09 12:09:12;;;;;;;7.00;6.32;;;26.60;99.90;;;;;;4989227;28;20213;-69
2021/09/09 12:11:39;;;;;;;7.22;6.72;;;26.60;99.90;;;;;;4989277;28;20260;-72
2021/09/09 12:14:17;;;;;;;6.43;5.88;;;26.20;99.90;;;;;;4990441;28;21624;-70
2021/09/09 12:16:44;;;;;;;7.03;6.47;;;26.30;99.90;;;;;;4989035;28;20232;-69
2021/09/09 12:19:12;;;;;;;6.57;5.93;;;25.60;99.90;;;;;;4988077;28;20679;-70
2021/09/09 12:21:52;;;;;;;7.25;6.15;;;25.40;99.90;;;;;;4990719;28;20209;-69
2021/09/09 12:24:20;;;;;;;6.53;6.03;;;25.00;99.90;;;;;;4991136;28;20287;-69
2021/09/09 12:26:58;;;;;;;7.70;6.50;;;24.90;99.90;;;;;;4991029;28;20263;-68
2021/09/09 12:29:36;;;;;;;7.18;6.57;;;25.30;99.90;;;;;;4989863;28;20283;-69
2021/09/09 12:32:03;;;;;;;6.55;5.97;;;25.90;99.90;;;;;;4991836;28;20208;-69
2021/09/09 12:34:37;;;;;;;7.22;6.53;;;26.60;99.90;;;;;;4990994;28;20299;-69
2021/09/09 12:37:15;;;;;;;6.88;6.28;;;26.20;99.90;;;;;;4990482;28;20279;-69
2021/09/09 12:39:46;;;;;;;6.80;6.20;;;26.10;99.90;;;;;;4988820;28;20212;-69
2021/09/09 12:42:13;;;;;;;6.45;5.95;;;26.10;99.90;;;;;;4989064;28;20201;-69
2021/09/09 12:44:41;;;;;;;7.03;6.25;;;26.70;99.90;;;;;;4990905;28;20267;-69
2021/09/09 12:47:16;;;;;;;7.25;6.75;;;26.30;99.90;;;;;;4989405;28;20205;-69
2021/09/09 12:49:43;;;;;;;7.28;6.57;;;25.90;99.90;;;;;;4990031;28;20212;-69
2021/09/09 12:52:12;;;;;;;7.40;6.75;;;25.30;99.90;;;;;;4991078;28;20205;-69
2021/09/09 12:54:41;;;;;;;8.23;7.38;;;25.00;99.90;;;;;;4988603;28;20256;-70
2021/09/09 12:57:08;;;;;;;7.55;6.95;;;24.90;99.90;;;;;;4990196;28;20237;-70
2021/09/09 12:59:35;;;;;;;7.40;6.70;;;24.80;99.90;;;;;;4989699;28;20215;-69
2021/09/09 13:02:03;;;;;;;8.48;6.70;;;25.00;99.90;;;;;;4991203;28;20216;-70
2021/09/09 13:04:30;;;;;;;7.05;6.35;;;25.20;99.90;;;;;;4990510;28;20208;-70
2021/09/09 13:06:58;;;;;;;7.80;6.88;;;25.20;99.90;;;;;;4989552;28;20209;-71
2021/09/09 13:09:26;;;;;;;9.05;7.45;;;25.70;99.90;;;;;;4990613;28;20204;-70
2021/09/09 13:11:54;;;;;;;7.97;6.68;;;25.80;99.90;;;;;;4988454;28;20248;-70
2021/09/09 13:14:21;;;;;;;9.48;6.75;;;25.70;99.90;;;;;;4990947;28;20211;-69
2021/09/09 13:16:48;;;;;;;6.93;6.20;;;25.70;99.90;;;;;;4990960;28;20720;-69
2021/09/09 13:19:16;;;;;;;7.03;5.75;;;25.70;99.90;;;;;;4991172;28;20672;-70
2021/09/09 13:21:45;;;;;;;6.78;6.18;;;25.60;99.90;;;;;;4990517;28;20212;-70
2021/09/09 13:24:12;;;;;;;5.82;5.30;;;26.10;99.90;;;;;;4988464;28;20240;-70
2021/09/09 13:26:40;;;;;;;7.13;6.53;;;26.30;99.90;;;;;;4990667;28;20263;-70
2021/09/09 13:29:07;;;;;;;6.82;6.00;;;26.00;99.90;;;;;;4987483;28;20209;-69
2021/09/09 13:31:34;;;;;;;6.10;5.53;;;26.30;99.90;;;;;;4974220;28;20260;-70
2021/09/09 13:34:01;;;;;;;5.85;5.35;;;26.20;99.90;;;;;;4979876;28;20212;-70
2021/09/09 13:36:29;;;;;;;9.57;8.65;;;25.80;99.90;;;;;;4981392;28;20243;-71
2021/09/09 13:38:57;;;;;;;8.10;7.30;;;25.80;99.90;;;;;;4988527;28;20212;-70
2021/09/09 13:41:24;;;;;;;7.28;6.35;;;25.80;99.90;;;;;;4989302;28;20267;-70
2021/09/09 13:43:51;;;;;;;5.35;4.85;;;25.60;99.90;;;;;;4989020;28;20208;-70
2021/09/09 13:46:18;;;;;;;5.13;4.68;;;25.50;99.90;;;;;;4989371;28;20578;-70
2021/09/09 13:48:45;;;;;;;6.15;5.63;;;25.40;99.90;;;;;;4990901;28;20212;-70
2021/09/09 13:51:12;;;;;;;6.60;5.25;;;25.40;99.90;;;;;;4990737;28;20216;-71
2021/09/09 13:53:41;;;;;;;6.15;5.38;;;25.50;99.90;;;;;;4989191;28;20213;-70
2021/09/09 13:56:09;;;;;;;5.97;5.55;;;25.50;99.90;;;;;;4988710;28;20228;-70
2021/09/09 13:58:36;;;;;;;6.65;5.97;;;25.90;99.90;;;;;;4989945;28;20247;-70
2021/09/09 14:01:03;;;;;;;6.95;5.95;;;25.60;99.90;;;;;;4988923;28;20209;-70
2021/09/09 14:03:30;;;;;;;5.68;5.22;;;25.60;99.90;;;;;;4989890;28;20209;-68
2021/09/09 14:05:57;;;;;;;8.60;5.97;;;25.70;99.90;;;;;;4989990;28;20232;-68
2021/09/09 14:08:24;;;;;;;5.88;5.28;;;25.90;99.90;;;;;;4988436;28;20212;-68
2021/09/09 14:10:52;;;;;;;5.35;4.95;;;26.10;99.90;;;;;;4990397;28;20732;-68
2021/09/09 14:13:19;;;;;;;5.00;4.57;;;26.40;99.90;;;;;;4986617;28;20695;-66
2021/09/09 14:15:46;;;;;;;5.13;4.50;;;26.30;99.90;;;;;;4988685;28;20232;-67
2021/09/09 14:18:13;;;;;;;5.57;5.18;;;26.30;99.90;;;;;;4988154;28;20212;-67
2021/09/09 14:20:41;;;;;;;4.93;4.53;;;26.40;99.90;;;;;;4989689;28;20212;-68
2021/09/09 14:23:08;;;;;;;2.53;2.33;;;26.20;99.90;;;;;;4990672;28;20213;-68
2021/09/09 14:25:35;;;;;;;4.32;4.00;;;26.10;99.90;;;;;;4990230;28;20227;-67
2021/09/09 14:28:04;;;;;;;4.85;4.07;;;26.30;99.90;;;;;;4990062;28;20209;-67
2021/09/09 14:30:31;;;;;;;4.38;3.97;;;26.60;99.90;;;;;;4990030;28;20251;-68
2021/09/09 14:32:58;;;;;;;4.10;3.80;;;26.60;99.90;;;;;;4990921;28;20673;-68
2021/09/09 14:35:25;;;;;;;4.25;3.70;;;26.50;99.90;;;;;;4989939;28;20636;-67
2021/09/09 14:37:53;;;;;;;7.20;3.60;;;26.90;99.90;;;;;;4990857;28;20209;-67
2021/09/09 14:40:20;;;;;;;4.10;3.72;;;27.10;99.90;;;;;;4990401;28;20574;-67
2021/09/09 14:42:47;;;;;;;6.38;4.10;;;27.40;99.90;;;;;;4990978;28;20259;-66
2021/09/09 14:45:15;;;;;;;4.53;3.50;;;27.30;99.90;;;;;;4990822;28;20243;-68
2021/09/09 14:47:44;;;;;;;4.88;3.63;;;27.00;99.90;;;;;;4989981;28;20633;-69
2021/09/09 14:50:13;;;;;;;4.80;4.40;;;27.00;99.90;;;;;;4989691;28;20208;-68
2021/09/09 14:52:40;;;;;;;2.67;2.47;;;26.80;99.90;;;;;;4988108;28;20248;-69
2021/09/09 14:55:08;;;;;;;4.57;3.65;;;27.00;99.90;;;;;;4990723;28;20283;-68
2021/09/09 14:57:35;;;;;;;3.13;2.88;;;26.90;99.90;;;;;;4985652;28;20240;-72
2021/09/09 15:00:02;;;;;;;5.22;4.00;;;26.90;99.90;;;;;;4990356;28;20213;-72
2021/09/09 15:02:31;;;;;;;4.32;3.83;;;26.70;99.90;;;;;;4988394;28;20259;-71
2021/09/09 15:04:58;;;;;;;3.75;3.40;;;26.60;99.90;;;;;;4990196;28;20217;-71
2021/09/09 15:07:24;;;;;;;6.20;3.03;;;26.60;99.90;;;;;;4990053;28;20271;-72
2021/09/09 15:09:51;;;;;;;3.67;3.20;;;26.50;99.90;;;;;;4990457;28;20201;-71
2021/09/09 15:12:18;;;;;;;4.00;3.70;;;26.60;99.90;;;;;;4990900;28;20283;-71
2021/09/09 15:14:45;;;;;;;3.05;2.75;;;26.60;99.90;;;;;;4990741;28;20209;-70
2021/09/09 15:17:13;;;;;;;3.90;3.50;;;26.10;99.90;;;;;;4990247;28;20608;-71
2021/09/09 15:19:41;;;;;;;4.78;4.00;;;26.10;99.90;;;;;;4990152;28;20295;-71
2021/09/09 15:22:08;;;;;;;4.88;4.45;;;26.00;99.90;;;;;;4990478;28;20209;-70
2021/09/09 15:24:35;;;;;;;5.53;3.63;;;25.90;99.90;;;;;;4990522;28;20264;-69
2021/09/09 15:27:02;;;;;;;4.90;3.70;;;25.70;99.90;;;;;;4980675;28;20214;-70
2021/09/09 15:29:29;;;;;;;3.33;3.03;;;25.60;99.90;;;;;;4989311;28;20205;-71
2021/09/09 15:31:56;;;;;;;6.38;5.00;;;25.60;99.90;;;;;;4985007;28;20260;-70
2021/09/09 15:34:24;;;;;;;6.65;5.90;;;25.70;99.90;;;;;;4990209;28;20213;-71
2021/09/09 15:36:53;;;;;;;6.35;5.95;;;25.30;99.90;;;;;;4993606;28;20317;-71
2021/09/09 15:39:20;;;;;;;7.57;6.88;;;25.20;99.90;;;;;;4993642;28;20205;-67
2021/09/09 15:41:48;;;;;;;7.15;6.65;;;25.00;99.90;;;;;;4993777;28;20220;-66
2021/09/09 15:44:15;;;;;;;11.55;8.68;;;25.00;99.90;;;;;;4993671;28;20213;-68
2021/09/09 15:46:42;;;;;;;9.80;8.63;;;25.00;99.90;;;;;;4993339;28;20217;-66
2021/09/09 15:49:09;;;;;;;10.65;8.88;;;24.90;99.90;;;;;;4993065;28;20205;-69
2021/09/09 15:51:36;;;;;;;9.07;8.38;;;24.90;99.90;;;;;;4993062;28;20216;-68
2021/09/09 15:54:05;;;;;;;12.63;9.95;;;24.80;99.90;;;;;;4993037;28;20640;-70
2021/09/09 15:56:33;;;;;;;10.63;9.73;;;24.70;99.90;;;;;;4993229;28;20228;-71
2021/09/09 15:59:04;;;;;;;9.15;8.38;;;24.70;99.90;;;;;;4992850;28;20207;-72
2021/09/09 16:01:33;;;;;;;10.27;9.40;;;24.60;99.90;;;;;;4992338;28;20209;-72
2021/09/09 16:04:01;;;;;;;9.68;8.77;;;24.60;99.90;;;;;;4992635;28;20228;-71
2021/09/09 16:06:28;;;;;;;11.02;10.05;;;24.50;99.90;;;;;;4991380;28;20208;-71
2021/09/09 16:08:55;;;;;;;11.55;10.43;;;24.30;99.90;;;;;;4992724;28;20283;-70
2021/09/09 16:11:24;;;;;;;10.23;9.40;;;24.20;99.90;;;;;;4991069;28;20217;-73
2021/09/09 16:13:51;;;;;;;15.57;10.20;;;24.20;99.90;;;;;;4991179;28;20308;-68
2021/09/09 16:16:19;;;;;;;11.07;10.07;;;24.10;99.90;;;;;;4991221;28;20291;-67
2021/09/09 16:18:47;;;;;;;9.52;8.60;;;24.10;99.90;;;;;;4992815;28;20251;-68
2021/09/09 16:21:14;;;;;;;9.05;8.35;;;23.90;99.90;;;;;;4992804;28;20625;-67
2021/09/09 16:23:43;;;;;;;10.02;9.02;;;23.80;99.90;;;;;;4992181;28;20212;-68
2021/09/09 16:26:10;;;;;;;11.57;9.23;;;23.70;99.90;;;;;;4992934;28;20654;-68
2021/09/09 16:28:39;;;;;;;9.77;8.82;;;23.60;99.90;;;;;;4992241;28;20217;-68
2021/09/09 16:31:05;;;;;;;13.90;9.82;;;23.50;99.90;;;;;;4992578;28;20217;-68
2021/09/09 16:33:32;;;;;;;10.43;9.63;;;23.60;99.90;;;;;;4992665;28;20272;-68
2021/09/09 16:35:59;;;;;;;10.73;9.75;;;23.60;99.90;;;;;;4992267;28;20256;-68
2021/09/09 16:38:27;;;;;;;12.65;9.15;;;23.60;99.90;;;;;;4992300;28;20264;-67
2021/09/09 16:40:53;;;;;;;9.57;8.68;;;23.60;99.90;;;;;;4992598;28;20209;-66
2021/09/09 16:43:22;;;;;;;10.82;9.82;;;23.60;99.90;;;;;;4992122;28;20240;-67
2021/09/09 16:45:51;;;;;;;12.20;11.00;;;23.60;99.90;;;;;;4992297;28;20692;-66
2021/09/09 16:48:18;;;;;;;10.55;9.57;;;23.50;99.90;;;;;;4992857;28;20688;-65
2021/09/09 16:50:45;;;;;;;11.18;9.93;;;23.40;99.90;;;;;;4992279;28;20303;-65
2021/09/09 16:53:12;;;;;;;10.90;9.85;;;23.40;99.90;;;;;;4986622;28;20208;-67
2021/09/09 16:55:39;;;;;;;11.40;10.50;;;23.40;99.90;;;;;;4991846;28;20209;-66
2021/09/09 16:58:06;;;;;;;13.43;9.60;;;23.30;99.90;;;;;;4992049;28;20240;-67
2021/09/09 17:00:33;;;;;;;10.65;9.65;;;23.30;99.90;;;;;;4992026;28;20583;-65
2021/09/09 17:03:01;;;;;;;11.73;10.60;;;23.30;99.90;;;;;;4992180;28;20255;-65
2021/09/09 17:05:28;;;;;;;10.30;9.40;;;23.20;99.90;;;;;;4991945;28;20267;-66
2021/09/09 17:07:55;;;;;;;11.13;10.10;;;23.30;99.90;;;;;;4991887;28;20650;-65
2021/09/09 17:10:23;;;;;;;12.02;10.93;;;23.30;99.90;;;;;;4991716;28;20205;-66
2021/09/09 17:12:50;;;;;;;10.60;9.70;;;23.20;99.90;;;;;;4992049;28;20301;-66
2021/09/09 17:15:18;;;;;;;14.77;10.32;;;23.20;99.90;;;;;;4991967;28;20204;-68
2021/09/09 17:17:45;;;;;;;11.48;10.05;;;23.10;99.90;;;;;;4991698;28;20240;-67
2021/09/09 17:20:14;;;;;;;10.40;9.50;;;23.10;99.90;;;;;;4991296;28;20201;-67
2021/09/09 17:22:46;;;;;;;11.52;10.48;;;23.10;99.90;;;;;;4990838;28;20345;-66
2021/09/09 17:25:14;;;;;;;11.07;10.18;;;23.10;99.90;;;;;;4991842;28;20299;-67
2021/09/09 17:27:41;;;;;;;12.82;11.60;;;23.20;99.90;;;;;;4991320;28;20263;-67
2021/09/09 17:30:09;;;;;;;12.07;10.73;;;23.10;99.90;;;;;;4991421;28;20251;-66
2021/09/09 17:32:36;;;;;;;11.88;10.68;;;23.10;99.90;;;;;;4991370;28;20209;-66
2021/09/09 17:35:03;;;;;;;11.00;10.15;;;23.10;99.90;;;;;;4991851;28;20267;-66
2021/09/09 17:37:32;;;;;;;10.82;9.82;;;23.10;99.90;;;;;;4991145;28;20353;-66
2021/09/09 17:39:59;;;;;;;11.27;10.18;;;23.10;99.90;;;;;;4991817;28;20213;-66
2021/09/09 17:42:26;;;;;;;12.30;11.10;;;23.10;99.90;;;;;;4991226;28;20279;-66
2021/09/09 17:44:53;;;;;;;12.00;10.75;;;23.00;99.90;;;;;;4991525;28;20209;-66
2021/09/09 17:47:20;;;;;;;10.68;9.63;;;23.00;99.90;;;;;;4991016;28;20213;-65
2021/09/09 17:49:47;;;;;;;10.50;9.48;;;22.90;99.90;;;;;;4991896;28;20212;-65